sensor_id;sensor_type;location;lat;lon;timestamp;pressure;altitude;pressure_sealevel;temperature;humidity
55486;BME280;49383;-25.924;28.194;2022-12-18T00:00:02;84406.84;;;23.45;30.04
55486;BME280;49383;-25.924;28.194;2022-12-18T00:02:26;84408.99;;;23.43;30.41
55486;BME280;49383;-25.924;28.194;2022-12-18T00:04:52;84409.33;;;23.37;31.00
55486;BME280;49383;-25.924;28.194;2022-12-18T00:07:16;84403.02;;;23.38;31.03
55486;BME280;49383;-25.924;28.194;2022-12-18T00:09:42;84396.63;;;23.70;31.09
55486;BME280;49383;-25.924;28.194;2022-12-18T00:12:07;84392.05;;;23.40;30.90
55486;BME280;49383;-25.924;28.194;2022-12-18T00:14:32;84393.83;;;23.68;30.48
55486;BME280;49383;-25.924;28.194;2022-12-18T00:16:57;84397.57;;;23.38;30.55
55486;BME280;49383;-25.924;28.194;2022-12-18T00:19:22;84392.90;;;23.35;31.12
55486;BME280;49383;-25.924;28.194;2022-12-18T00:21:47;84390.10;;;23.64;31.46
55486;BME280;49383;-25.924;28.194;2022-12-18T00:24:12;84392.32;;;23.65;31.24
55486;BME280;49383;-25.924;28.194;2022-12-18T00:26:38;84392.16;;;23.64;31.02
55486;BME280;49383;-25.924;28.194;2022-12-18T00:29:04;84387.72;;;23.37;30.80
55486;BME280;49383;-25.924;28.194;2022-12-18T00:31:27;84389.71;;;23.38;30.50
55486;BME280;49383;-25.924;28.194;2022-12-18T00:33:53;84393.54;;;23.44;31.19
55486;BME280;49383;-25.924;28.194;2022-12-18T00:36:21;84394.82;;;23.57;30.99
55486;BME280;49383;-25.924;28.194;2022-12-18T00:38:43;84393.37;;;23.85;30.97
55486;BME280;49383;-25.924;28.194;2022-12-18T00:41:10;84393.86;;;23.57;30.49
55486;BME280;49383;-25.924;28.194;2022-12-18T00:43:33;84392.93;;;23.53;30.02
55486;BME280;49383;-25.924;28.194;2022-12-18T00:45:58;84392.16;;;23.78;30.74
55486;BME280;49383;-25.924;28.194;2022-12-18T00:48:23;84390.59;;;23.50;30.90
55486;BME280;49383;-25.924;28.194;2022-12-18T00:50:49;84387.88;;;23.72;31.19
55486;BME280;49383;-25.924;28.194;2022-12-18T00:53:13;84388.70;;;23.41;30.84
55486;BME280;49383;-25.924;28.194;2022-12-18T00:55:39;84392.88;;;23.63;30.58
55486;BME280;49383;-25.924;28.194;2022-12-18T00:58:03;84391.79;;;23.33;30.65
55486;BME280;49383;-25.924;28.194;2022-12-18T01:00:28;84397.50;;;23.29;31.14
55486;BME280;49383;-25.924;28.194;2022-12-18T01:02:53;84401.39;;;23.32;31.21
55486;BME280;49383;-25.924;28.194;2022-12-18T01:05:19;84406.61;;;23.32;31.13
55486;BME280;49383;-25.924;28.194;2022-12-18T01:07:44;84409.85;;;23.59;30.77
55486;BME280;49383;-25.924;28.194;2022-12-18T01:10:12;84410.03;;;23.53;30.73
55486;BME280;49383;-25.924;28.194;2022-12-18T01:12:34;84410.30;;;23.27;30.78
55486;BME280;49383;-25.924;28.194;2022-12-18T01:14:59;84407.02;;;23.53;31.29
55486;BME280;49383;-25.924;28.194;2022-12-18T01:17:25;84404.04;;;23.27;31.36
55486;BME280;49383;-25.924;28.194;2022-12-18T01:19:49;84409.44;;;23.26;31.07
55486;BME280;49383;-25.924;28.194;2022-12-18T01:22:15;84416.43;;;23.25;30.45
55486;BME280;49383;-25.924;28.194;2022-12-18T01:24:40;84424.67;;;23.25;30.66
55486;BME280;49383;-25.924;28.194;2022-12-18T01:27:05;84424.21;;;23.52;30.96
55486;BME280;49383;-25.924;28.194;2022-12-18T01:29:31;84423.60;;;23.49;31.32
55486;BME280;49383;-25.924;28.194;2022-12-18T01:31:56;84417.18;;;23.51;31.11
55486;BME280;49383;-25.924;28.194;2022-12-18T01:34:21;84418.69;;;23.22;30.90
55486;BME280;49383;-25.924;28.194;2022-12-18T01:36:46;84419.10;;;23.20;30.80
55486;BME280;49383;-25.924;28.194;2022-12-18T01:39:13;84419.71;;;23.19;30.67
55486;BME280;49383;-25.924;28.194;2022-12-18T01:41:37;84423.33;;;23.18;31.17
55486;BME280;49383;-25.924;28.194;2022-12-18T01:44:46;84426.32;;;23.67;31.56
55486;BME280;49383;-25.924;28.194;2022-12-18T01:46:28;84427.56;;;23.48;31.03
55486;BME280;49383;-25.924;28.194;2022-12-18T01:48:55;84429.95;;;23.20;31.00
55486;BME280;49383;-25.924;28.194;2022-12-18T01:51:17;84428.49;;;23.17;31.09
55486;BME280;49383;-25.924;28.194;2022-12-18T01:53:43;84429.05;;;23.19;30.92
55486;BME280;49383;-25.924;28.194;2022-12-18T01:56:08;84433.94;;;23.18;31.24
55486;BME280;49383;-25.924;28.194;2022-12-18T01:58:39;84435.66;;;23.18;31.36
55486;BME280;49383;-25.924;28.194;2022-12-18T02:00:57;84433.59;;;23.42;31.14
55486;BME280;49383;-25.924;28.194;2022-12-18T02:03:22;84432.35;;;23.16;30.89
55486;BME280;49383;-25.924;28.194;2022-12-18T02:05:52;84432.22;;;23.40;30.49
55486;BME280;49383;-25.924;28.194;2022-12-18T02:08:15;84432.04;;;23.62;31.06
55486;BME280;49383;-25.924;28.194;2022-12-18T02:10:44;84437.04;;;23.11;31.58
55486;BME280;49383;-25.924;28.194;2022-12-18T02:13:08;84438.41;;;23.39;31.28
55486;BME280;49383;-25.924;28.194;2022-12-18T02:15:31;84437.85;;;23.14;31.20
55486;BME280;49383;-25.924;28.194;2022-12-18T02:17:56;84437.45;;;23.14;30.81
55486;BME280;49383;-25.924;28.194;2022-12-18T02:20:21;84436.89;;;23.13;30.82
55486;BME280;49383;-25.924;28.194;2022-12-18T02:22:53;84444.50;;;23.11;31.38
55486;BME280;49383;-25.924;28.194;2022-12-18T02:25:20;84448.43;;;23.40;31.40
55486;BME280;49383;-25.924;28.194;2022-12-18T02:27:36;84449.57;;;23.38;30.99
55486;BME280;49383;-25.924;28.194;2022-12-18T02:30:01;84449.62;;;23.09;31.05
55486;BME280;49383;-25.924;28.194;2022-12-18T02:32:27;84448.97;;;23.28;30.89
55486;BME280;49383;-25.924;28.194;2022-12-18T02:34:50;84450.32;;;23.00;31.16
55486;BME280;49383;-25.924;28.194;2022-12-18T02:37:17;84452.38;;;23.29;31.47
55486;BME280;49383;-25.924;28.194;2022-12-18T02:39:41;84456.98;;;23.33;31.17
55486;BME280;49383;-25.924;28.194;2022-12-18T02:42:04;84458.46;;;23.04;31.27
55486;BME280;49383;-25.924;28.194;2022-12-18T02:44:29;84463.60;;;23.08;30.76
55486;BME280;49383;-25.924;28.194;2022-12-18T02:46:54;84465.05;;;22.97;30.73
55486;BME280;49383;-25.924;28.194;2022-12-18T02:49:29;84466.85;;;23.02;31.07
55486;BME280;49383;-25.924;28.194;2022-12-18T02:51:52;84465.13;;;23.53;31.34
55486;BME280;49383;-25.924;28.194;2022-12-18T02:54:13;84468.59;;;23.05;31.11
55486;BME280;49383;-25.924;28.194;2022-12-18T02:56:38;84471.66;;;23.01;30.86
55486;BME280;49383;-25.924;28.194;2022-12-18T02:59:04;84473.05;;;23.00;30.72
55486;BME280;49383;-25.924;28.194;2022-12-18T03:01:31;84474.42;;;22.98;30.79
55486;BME280;49383;-25.924;28.194;2022-12-18T03:03:54;84474.08;;;22.98;31.26
55486;BME280;49383;-25.924;28.194;2022-12-18T03:06:23;84472.16;;;22.95;31.64
55486;BME280;49383;-25.924;28.194;2022-12-18T03:08:44;84478.37;;;23.47;31.35
55486;BME280;49383;-25.924;28.194;2022-12-18T03:11:09;84480.74;;;23.27;30.71
55486;BME280;49383;-25.924;28.194;2022-12-18T03:13:35;84481.22;;;23.23;30.94
55486;BME280;49383;-25.924;28.194;2022-12-18T03:15:57;84490.71;;;23.24;31.10
55486;BME280;49383;-25.924;28.194;2022-12-18T03:18:24;84500.73;;;22.96;31.61
55486;BME280;49383;-25.924;28.194;2022-12-18T03:20:48;84499.97;;;23.47;31.64
55486;BME280;49383;-25.924;28.194;2022-12-18T03:23:13;84498.71;;;23.42;31.16
55486;BME280;49383;-25.924;28.194;2022-12-18T03:25:39;84505.73;;;23.20;30.60
55486;BME280;49383;-25.924;28.194;2022-12-18T03:28:04;84516.34;;;23.16;30.49
55486;BME280;49383;-25.924;28.194;2022-12-18T03:30:29;84516.07;;;22.89;31.01
55486;BME280;49383;-25.924;28.194;2022-12-18T03:32:53;84507.49;;;22.91;31.34
55486;BME280;49383;-25.924;28.194;2022-12-18T03:35:20;84519.43;;;23.45;31.90
55486;BME280;49383;-25.924;28.194;2022-12-18T03:37:42;84515.14;;;22.98;32.52
55486;BME280;49383;-25.924;28.194;2022-12-18T03:40:08;84506.63;;;22.98;33.18
55486;BME280;49383;-25.924;28.194;2022-12-18T03:42:38;84508.30;;;23.04;33.91
55486;BME280;49383;-25.924;28.194;2022-12-18T03:45:04;84515.59;;;23.16;33.67
55486;BME280;49383;-25.924;28.194;2022-12-18T03:47:26;84515.07;;;23.30;34.60
55486;BME280;49383;-25.924;28.194;2022-12-18T03:49:50;84517.59;;;23.35;34.36
55486;BME280;49383;-25.924;28.194;2022-12-18T03:52:17;84519.54;;;23.28;33.95
55486;BME280;49383;-25.924;28.194;2022-12-18T03:54:39;84518.86;;;23.21;34.36
55486;BME280;49383;-25.924;28.194;2022-12-18T03:57:06;84521.12;;;23.19;34.13
55486;BME280;49383;-25.924;28.194;2022-12-18T03:59:28;84519.01;;;23.46;33.96
55486;BME280;49383;-25.924;28.194;2022-12-18T04:01:54;84515.37;;;23.56;34.87
55486;BME280;49383;-25.924;28.194;2022-12-18T04:04:18;84515.52;;;23.15;34.55
55486;BME280;49383;-25.924;28.194;2022-12-18T04:06:43;84519.10;;;23.37;35.14
55486;BME280;49383;-25.924;28.194;2022-12-18T04:09:08;84519.66;;;23.36;36.08
55486;BME280;49383;-25.924;28.194;2022-12-18T04:11:33;84515.27;;;23.42;35.76
55486;BME280;49383;-25.924;28.194;2022-12-18T04:13:59;84516.69;;;23.65;34.82
55486;BME280;49383;-25.924;28.194;2022-12-18T04:16:24;84517.38;;;23.37;34.76
55486;BME280;49383;-25.924;28.194;2022-12-18T04:18:49;84515.65;;;23.34;34.96
55486;BME280;49383;-25.924;28.194;2022-12-18T04:21:15;84518.05;;;23.12;34.71
55486;BME280;49383;-25.924;28.194;2022-12-18T04:23:40;84519.98;;;23.36;34.27
55486;BME280;49383;-25.924;28.194;2022-12-18T04:26:05;84521.40;;;23.43;34.67
55486;BME280;49383;-25.924;28.194;2022-12-18T04:28:30;84521.96;;;23.46;34.86
55486;BME280;49383;-25.924;28.194;2022-12-18T04:30:55;84522.43;;;23.42;34.50
55486;BME280;49383;-25.924;28.194;2022-12-18T04:33:20;84522.42;;;23.40;34.37
55486;BME280;49383;-25.924;28.194;2022-12-18T04:35:45;84522.46;;;23.37;34.18
55486;BME280;49383;-25.924;28.194;2022-12-18T04:38:11;84523.67;;;23.37;33.96
55486;BME280;49383;-25.924;28.194;2022-12-18T04:40:37;84529.37;;;23.48;34.36
55486;BME280;49383;-25.924;28.194;2022-12-18T04:43:01;84540.55;;;23.48;34.68
55486;BME280;49383;-25.924;28.194;2022-12-18T04:45:26;84543.34;;;23.46;34.06
55486;BME280;49383;-25.924;28.194;2022-12-18T04:47:51;84540.23;;;23.60;33.72
55486;BME280;49383;-25.924;28.194;2022-12-18T04:50:16;84540.23;;;23.29;33.75
55486;BME280;49383;-25.924;28.194;2022-12-18T04:52:41;84543.78;;;23.27;33.81
55486;BME280;49383;-25.924;28.194;2022-12-18T04:55:07;84543.27;;;23.40;33.73
55486;BME280;49383;-25.924;28.194;2022-12-18T04:57:31;84544.93;;;23.64;33.30
55486;BME280;49383;-25.924;28.194;2022-12-18T04:59:57;84549.45;;;23.30;33.07
55486;BME280;49383;-25.924;28.194;2022-12-18T05:02:22;84553.20;;;23.35;32.63
55486;BME280;49383;-25.924;28.194;2022-12-18T05:04:48;84559.04;;;23.23;33.07
55486;BME280;49383;-25.924;28.194;2022-12-18T05:07:13;84561.08;;;23.56;33.22
55486;BME280;49383;-25.924;28.194;2022-12-18T05:09:40;84561.42;;;23.39;32.68
55486;BME280;49383;-25.924;28.194;2022-12-18T05:12:04;84564.33;;;23.38;32.48
55486;BME280;49383;-25.924;28.194;2022-12-18T05:14:29;84565.15;;;23.35;32.49
55486;BME280;49383;-25.924;28.194;2022-12-18T05:16:54;84559.21;;;23.33;32.50
55486;BME280;49383;-25.924;28.194;2022-12-18T05:19:19;84556.07;;;23.34;33.13
55486;BME280;49383;-25.924;28.194;2022-12-18T05:21:44;84554.10;;;23.53;32.98
55486;BME280;49383;-25.924;28.194;2022-12-18T05:24:09;84552.08;;;23.54;32.62
55486;BME280;49383;-25.924;28.194;2022-12-18T05:26:35;84551.24;;;23.54;32.48
55486;BME280;49383;-25.924;28.194;2022-12-18T05:29:00;84548.68;;;23.35;32.24
55486;BME280;49383;-25.924;28.194;2022-12-18T05:31:26;84547.53;;;23.57;32.46
55486;BME280;49383;-25.924;28.194;2022-12-18T05:33:51;84548.29;;;23.62;33.10
55486;BME280;49383;-25.924;28.194;2022-12-18T05:36:16;84551.08;;;23.73;33.09
55486;BME280;49383;-25.924;28.194;2022-12-18T05:38:42;84549.99;;;23.74;32.89
55486;BME280;49383;-25.924;28.194;2022-12-18T05:41:08;84554.32;;;23.76;32.36
55486;BME280;49383;-25.924;28.194;2022-12-18T05:43:33;84555.13;;;23.72;32.95
55486;BME280;49383;-25.924;28.194;2022-12-18T05:45:57;84557.94;;;23.73;32.89
55486;BME280;49383;-25.924;28.194;2022-12-18T05:48:23;84561.40;;;23.61;33.13
55486;BME280;49383;-25.924;28.194;2022-12-18T05:50:49;84562.51;;;23.94;32.85
55486;BME280;49383;-25.924;28.194;2022-12-18T05:53:14;84563.97;;;23.71;32.64
55486;BME280;49383;-25.924;28.194;2022-12-18T05:55:39;84562.08;;;24.22;32.30
55486;BME280;49383;-25.924;28.194;2022-12-18T05:58:03;84559.01;;;23.94;32.14
55486;BME280;49383;-25.924;28.194;2022-12-18T06:00:28;84560.13;;;23.97;32.96
55486;BME280;49383;-25.924;28.194;2022-12-18T06:02:53;84561.57;;;23.67;32.53
55486;BME280;49383;-25.924;28.194;2022-12-18T06:05:19;84562.91;;;24.16;32.44
55486;BME280;49383;-25.924;28.194;2022-12-18T06:07:45;84566.96;;;24.14;32.06
55486;BME280;49383;-25.924;28.194;2022-12-18T06:10:10;84568.42;;;23.69;32.37
55486;BME280;49383;-25.924;28.194;2022-12-18T06:12:35;84569.58;;;23.72;32.40
55486;BME280;49383;-25.924;28.194;2022-12-18T06:15:00;84570.30;;;23.78;33.00
55486;BME280;49383;-25.924;28.194;2022-12-18T06:17:28;84570.32;;;23.85;32.46
55486;BME280;49383;-25.924;28.194;2022-12-18T06:19:50;84563.87;;;24.08;32.70
55486;BME280;49383;-25.924;28.194;2022-12-18T06:22:14;84565.97;;;23.90;33.02
55486;BME280;49383;-25.924;28.194;2022-12-18T06:24:40;84562.96;;;23.93;32.98
55486;BME280;49383;-25.924;28.194;2022-12-18T06:27:05;84563.49;;;23.98;33.77
55486;BME280;49383;-25.924;28.194;2022-12-18T06:29:31;84567.50;;;23.85;33.65
55486;BME280;49383;-25.924;28.194;2022-12-18T06:31:56;84567.48;;;24.13;33.96
55486;BME280;49383;-25.924;28.194;2022-12-18T06:34:21;84567.25;;;24.13;33.31
55486;BME280;49383;-25.924;28.194;2022-12-18T06:36:47;84567.11;;;24.14;33.64
55486;BME280;49383;-25.924;28.194;2022-12-18T06:39:12;84563.93;;;24.16;33.60
55486;BME280;49383;-25.924;28.194;2022-12-18T06:41:39;84567.40;;;24.23;33.94
55486;BME280;49383;-25.924;28.194;2022-12-18T06:44:04;84570.05;;;24.28;33.88
55486;BME280;49383;-25.924;28.194;2022-12-18T06:46:30;84569.66;;;24.01;33.73
55486;BME280;49383;-25.924;28.194;2022-12-18T06:48:55;84570.48;;;24.30;33.12
55486;BME280;49383;-25.924;28.194;2022-12-18T06:51:24;84571.12;;;24.31;33.29
55486;BME280;49383;-25.924;28.194;2022-12-18T06:53:47;84571.27;;;24.39;33.57
55486;BME280;49383;-25.924;28.194;2022-12-18T06:56:12;84570.10;;;24.20;33.39
55486;BME280;49383;-25.924;28.194;2022-12-18T06:58:38;84565.59;;;24.48;33.52
55486;BME280;49383;-25.924;28.194;2022-12-18T07:01:06;84563.14;;;24.21;33.39
55486;BME280;49383;-25.924;28.194;2022-12-18T07:03:31;84562.45;;;24.51;33.34
55486;BME280;49383;-25.924;28.194;2022-12-18T07:05:55;84561.80;;;24.50;34.06
55486;BME280;49383;-25.924;28.194;2022-12-18T07:08:21;84564.37;;;24.65;34.12
55486;BME280;49383;-25.924;28.194;2022-12-18T07:10:46;84565.24;;;24.35;33.91
55486;BME280;49383;-25.924;28.194;2022-12-18T07:13:12;84567.01;;;24.35;34.27
55486;BME280;49383;-25.924;28.194;2022-12-18T07:15:38;84565.11;;;24.33;33.73
55486;BME280;49383;-25.924;28.194;2022-12-18T07:18:04;84564.68;;;24.34;33.68
55486;BME280;49383;-25.924;28.194;2022-12-18T07:20:29;84564.72;;;24.66;34.29
55486;BME280;49383;-25.924;28.194;2022-12-18T07:22:54;84566.51;;;24.45;33.96
55486;BME280;49383;-25.924;28.194;2022-12-18T07:25:20;84561.18;;;24.40;33.36
55486;BME280;49383;-25.924;28.194;2022-12-18T07:27:46;84561.35;;;24.62;33.52
55486;BME280;49383;-25.924;28.194;2022-12-18T07:30:12;84561.88;;;24.63;33.42
55486;BME280;49383;-25.924;28.194;2022-12-18T07:32:38;84560.00;;;24.38;33.74
55486;BME280;49383;-25.924;28.194;2022-12-18T07:35:04;84560.50;;;24.44;33.43
55486;BME280;49383;-25.924;28.194;2022-12-18T07:37:29;84561.39;;;24.67;32.91
55486;BME280;49383;-25.924;28.194;2022-12-18T07:39:54;84559.45;;;24.61;32.55
55486;BME280;49383;-25.924;28.194;2022-12-18T07:42:19;84559.22;;;24.27;33.17
55486;BME280;49383;-25.924;28.194;2022-12-18T07:44:44;84562.74;;;24.26;33.44
55486;BME280;49383;-25.924;28.194;2022-12-18T07:47:10;84561.97;;;24.36;33.75
55486;BME280;49383;-25.924;28.194;2022-12-18T07:49:36;84564.30;;;24.42;33.71
55486;BME280;49383;-25.924;28.194;2022-12-18T07:52:02;84560.70;;;24.70;33.52
55486;BME280;49383;-25.924;28.194;2022-12-18T07:54:27;84559.22;;;24.70;33.52
55486;BME280;49383;-25.924;28.194;2022-12-18T07:56:53;84558.60;;;24.41;33.41
55486;BME280;49383;-25.924;28.194;2022-12-18T07:59:18;84558.99;;;24.48;33.91
55486;BME280;49383;-25.924;28.194;2022-12-18T08:01:44;84558.49;;;24.84;34.11
55486;BME280;49383;-25.924;28.194;2022-12-18T08:04:10;84560.31;;;24.82;34.03
55486;BME280;49383;-25.924;28.194;2022-12-18T08:06:36;84562.01;;;24.82;34.03
55486;BME280;49383;-25.924;28.194;2022-12-18T08:09:02;84561.71;;;24.84;34.63
55486;BME280;49383;-25.924;28.194;2022-12-18T08:11:28;84560.46;;;24.87;33.90
55486;BME280;49383;-25.924;28.194;2022-12-18T08:13:54;84561.18;;;25.00;34.84
55486;BME280;49383;-25.924;28.194;2022-12-18T08:16:20;84558.09;;;24.72;34.28
55486;BME280;49383;-25.924;28.194;2022-12-18T08:18:44;84555.07;;;24.73;33.99
55486;BME280;49383;-25.924;28.194;2022-12-18T08:21:10;84551.73;;;24.75;33.86
55486;BME280;49383;-25.924;28.194;2022-12-18T08:23:36;84551.11;;;25.04;34.63
55486;BME280;49383;-25.924;28.194;2022-12-18T08:26:01;84554.45;;;24.82;35.60
55486;BME280;49383;-25.924;28.194;2022-12-18T08:28:27;84548.73;;;24.67;35.10
55486;BME280;49383;-25.924;28.194;2022-12-18T08:30:52;84545.92;;;24.90;34.91
55486;BME280;49383;-25.924;28.194;2022-12-18T08:33:18;84545.06;;;24.87;34.47
55486;BME280;49383;-25.924;28.194;2022-12-18T08:35:44;84545.78;;;24.91;34.68
55486;BME280;49383;-25.924;28.194;2022-12-18T08:38:10;84547.12;;;24.93;35.10
55486;BME280;49383;-25.924;28.194;2022-12-18T08:40:35;84542.78;;;25.02;35.52
55486;BME280;49383;-25.924;28.194;2022-12-18T08:43:01;84546.44;;;25.07;34.88
55486;BME280;49383;-25.924;28.194;2022-12-18T08:45:27;84542.36;;;25.11;35.00
55486;BME280;49383;-25.924;28.194;2022-12-18T08:47:53;84540.21;;;25.10;35.17
55486;BME280;49383;-25.924;28.194;2022-12-18T08:50:19;84542.91;;;25.09;34.71
55486;BME280;49383;-25.924;28.194;2022-12-18T08:52:45;84547.34;;;25.18;36.27
55486;BME280;49383;-25.924;28.194;2022-12-18T08:55:10;84553.43;;;24.98;35.50
55486;BME280;49383;-25.924;28.194;2022-12-18T08:57:34;84550.72;;;25.16;34.93
55486;BME280;49383;-25.924;28.194;2022-12-18T09:00:00;84549.29;;;25.15;35.26
55486;BME280;49383;-25.924;28.194;2022-12-18T09:02:26;84549.09;;;24.93;35.34
55486;BME280;49383;-25.924;28.194;2022-12-18T09:04:52;84554.30;;;25.20;35.77
55486;BME280;49383;-25.924;28.194;2022-12-18T09:07:18;84547.11;;;25.32;35.74
55486;BME280;49383;-25.924;28.194;2022-12-18T09:09:44;84544.10;;;25.04;34.82
55486;BME280;49383;-25.924;28.194;2022-12-18T09:12:09;84544.28;;;25.27;34.43
55486;BME280;49383;-25.924;28.194;2022-12-18T09:14:36;84539.66;;;25.25;34.48
55486;BME280;49383;-25.924;28.194;2022-12-18T09:17:01;84538.88;;;25.05;34.83
55486;BME280;49383;-25.924;28.194;2022-12-18T09:19:27;84542.92;;;25.33;34.78
55486;BME280;49383;-25.924;28.194;2022-12-18T09:21:52;84538.42;;;25.11;34.88
55486;BME280;49383;-25.924;28.194;2022-12-18T09:24:18;84534.67;;;25.32;34.53
55486;BME280;49383;-25.924;28.194;2022-12-18T09:26:44;84531.91;;;25.32;34.25
55486;BME280;49383;-25.924;28.194;2022-12-18T09:29:10;84533.68;;;25.03;34.01
55486;BME280;49383;-25.924;28.194;2022-12-18T09:31:36;84531.07;;;25.21;34.37
55486;BME280;49383;-25.924;28.194;2022-12-18T09:34:01;84528.45;;;25.57;34.50
55486;BME280;49383;-25.924;28.194;2022-12-18T09:36:27;84526.55;;;25.00;34.13
55486;BME280;49383;-25.924;28.194;2022-12-18T09:38:53;84526.35;;;25.02;34.21
55486;BME280;49383;-25.924;28.194;2022-12-18T09:41:35;84522.81;;;25.01;34.03
55486;BME280;49383;-25.924;28.194;2022-12-18T09:43:47;84520.41;;;25.00;34.55
55486;BME280;49383;-25.924;28.194;2022-12-18T09:46:19;84520.16;;;25.15;34.75
55486;BME280;49383;-25.924;28.194;2022-12-18T09:48:40;84520.09;;;25.52;34.09
55486;BME280;49383;-25.924;28.194;2022-12-18T09:51:08;84519.99;;;25.13;33.46
55486;BME280;49383;-25.924;28.194;2022-12-18T09:53:31;84516.93;;;25.31;33.04
55486;BME280;49383;-25.924;28.194;2022-12-18T09:55:53;84511.67;;;25.27;32.73
55486;BME280;49383;-25.924;28.194;2022-12-18T09:58:26;84514.56;;;25.44;32.97
55486;BME280;49383;-25.924;28.194;2022-12-18T10:00:44;84512.55;;;25.07;33.28
55486;BME280;49383;-25.924;28.194;2022-12-18T10:03:11;84510.02;;;25.22;32.98
55486;BME280;49383;-25.924;28.194;2022-12-18T10:05:39;84510.13;;;24.92;32.51
55486;BME280;49383;-25.924;28.194;2022-12-18T10:08:04;84509.84;;;25.18;32.05
55486;BME280;49383;-25.924;28.194;2022-12-18T10:10:35;84507.00;;;24.89;32.44
55486;BME280;49383;-25.924;28.194;2022-12-18T10:12:56;84500.73;;;25.27;32.93
55486;BME280;49383;-25.924;28.194;2022-12-18T10:15:21;84501.52;;;25.19;32.53
55486;BME280;49383;-25.924;28.194;2022-12-18T10:17:45;84500.92;;;24.89;32.30
55486;BME280;49383;-25.924;28.194;2022-12-18T10:20:12;84498.85;;;25.15;32.09
55486;BME280;49383;-25.924;28.194;2022-12-18T10:22:46;84500.11;;;24.92;31.61
55486;BME280;49383;-25.924;28.194;2022-12-18T10:25:05;84499.48;;;25.26;32.31
55486;BME280;49383;-25.924;28.194;2022-12-18T10:27:26;84499.77;;;25.30;32.73
55486;BME280;49383;-25.924;28.194;2022-12-18T10:29:51;84502.70;;;25.03;31.85
55486;BME280;49383;-25.924;28.194;2022-12-18T10:32:19;84495.66;;;24.94;31.81
55486;BME280;49383;-25.924;28.194;2022-12-18T10:34:44;84492.29;;;24.84;31.73
55486;BME280;49383;-25.924;28.194;2022-12-18T10:37:12;84489.27;;;25.08;31.76
55486;BME280;49383;-25.924;28.194;2022-12-18T10:39:33;84486.93;;;25.12;32.16
55486;BME280;49383;-25.924;28.194;2022-12-18T10:44:24;84489.43;;;25.08;31.70
55486;BME280;49383;-25.924;28.194;2022-12-18T10:46:53;84489.72;;;24.78;31.69
55486;BME280;49383;-25.924;28.194;2022-12-18T10:49:22;84490.72;;;25.03;31.47
55486;BME280;49383;-25.924;28.194;2022-12-18T10:51:40;84492.37;;;25.02;31.56
55486;BME280;49383;-25.924;28.194;2022-12-18T10:54:12;84486.31;;;24.78;32.12
55486;BME280;49383;-25.924;28.194;2022-12-18T10:56:33;84483.98;;;25.00;31.91
55486;BME280;49383;-25.924;28.194;2022-12-18T10:58:59;84481.78;;;25.46;31.42
55486;BME280;49383;-25.924;28.194;2022-12-18T11:01:21;84478.44;;;24.95;31.44
55486;BME280;49383;-25.924;28.194;2022-12-18T11:03:58;84478.43;;;24.68;30.96
55486;BME280;49383;-25.924;28.194;2022-12-18T11:06:13;84478.39;;;24.90;31.16
55486;BME280;49383;-25.924;28.194;2022-12-18T11:08:36;84470.67;;;24.89;31.43
55486;BME280;49383;-25.924;28.194;2022-12-18T11:11:02;84469.77;;;24.70;31.83
55486;BME280;49383;-25.924;28.194;2022-12-18T11:13:29;84463.44;;;25.00;31.87
55486;BME280;49383;-25.924;28.194;2022-12-18T11:15:53;84459.87;;;24.99;31.29
55486;BME280;49383;-25.924;28.194;2022-12-18T11:18:22;84457.24;;;25.02;31.55
55486;BME280;49383;-25.924;28.194;2022-12-18T11:20:43;84451.45;;;24.94;31.71
55486;BME280;49383;-25.924;28.194;2022-12-18T11:23:12;84447.76;;;24.66;31.85
55486;BME280;49383;-25.924;28.194;2022-12-18T11:25:34;84447.53;;;25.06;32.10
55486;BME280;49383;-25.924;28.194;2022-12-18T11:28:01;84444.42;;;25.08;31.68
55486;BME280;49383;-25.924;28.194;2022-12-18T11:30:27;84441.36;;;24.78;31.40
55486;BME280;49383;-25.924;28.194;2022-12-18T11:32:51;84439.96;;;25.00;31.01
55486;BME280;49383;-25.924;28.194;2022-12-18T11:35:20;84438.59;;;24.94;30.86
55486;BME280;49383;-25.924;28.194;2022-12-18T11:37:43;84438.22;;;24.94;30.92
55486;BME280;49383;-25.924;28.194;2022-12-18T11:40:10;84426.19;;;24.90;30.94
55486;BME280;49383;-25.924;28.194;2022-12-18T11:42:38;84426.57;;;24.86;30.91
55486;BME280;49383;-25.924;28.194;2022-12-18T11:45:00;84430.67;;;24.85;31.01
55486;BME280;49383;-25.924;28.194;2022-12-18T11:47:26;84431.96;;;24.61;31.95
55486;BME280;49383;-25.924;28.194;2022-12-18T11:49:49;84427.15;;;24.86;31.51
55486;BME280;49383;-25.924;28.194;2022-12-18T11:52:18;84423.28;;;24.89;31.19
55486;BME280;49383;-25.924;28.194;2022-12-18T11:54:36;84418.84;;;24.87;30.71
55486;BME280;49383;-25.924;28.194;2022-12-18T11:57:07;84419.08;;;25.07;30.79
55486;BME280;49383;-25.924;28.194;2022-12-18T11:59:34;84421.27;;;24.80;31.40
55486;BME280;49383;-25.924;28.194;2022-12-18T12:01:55;84417.75;;;24.86;31.29
55486;BME280;49383;-25.924;28.194;2022-12-18T12:06:49;84417.47;;;25.03;31.93
55486;BME280;49383;-25.924;28.194;2022-12-18T12:09:13;84418.35;;;24.85;31.67
55486;BME280;49383;-25.924;28.194;2022-12-18T12:11:41;84415.72;;;24.92;31.93
55486;BME280;49383;-25.924;28.194;2022-12-18T12:14:08;84411.70;;;25.24;31.93
55486;BME280;49383;-25.924;28.194;2022-12-18T12:16:27;84409.57;;;25.25;32.24
55486;BME280;49383;-25.924;28.194;2022-12-18T12:19:02;84403.06;;;25.25;32.39
55486;BME280;49383;-25.924;28.194;2022-12-18T12:21:19;84401.52;;;24.84;32.39
55486;BME280;49383;-25.924;28.194;2022-12-18T12:23:44;84407.22;;;25.09;32.71
55486;BME280;49383;-25.924;28.194;2022-12-18T12:26:08;84398.26;;;25.31;32.28
55486;BME280;49383;-25.924;28.194;2022-12-18T12:31:02;84400.76;;;25.21;31.42
55486;BME280;49383;-25.924;28.194;2022-12-18T12:33:31;84394.70;;;25.16;31.03
55486;BME280;49383;-25.924;28.194;2022-12-18T12:35:52;84386.91;;;24.84;30.75